STAZIONE METEO DI BARCELLONA P.G. CENTRO
Dati campionati ogni minuto da Consolle Davis Vantage Pro 2
ed inviati alla rete mediante server Anemos WDS5 wview



Barcellona P.G. Centro more information Barcellona P.G. Centro


Golfo di Patti more information Golfo di Patti


Thunder radar more information blitzortung!


Rain radar  rain snow radar


altri nostri siti meteo:

Rischio IncendiRischio Incendi

Rete NOAA MADIS

Italia Meteo Network

PomeziameteoSito web di stazione meteo amica



Non è richiesta alcuna attenzione speciale.    Non sono presenti avvisi meteorologici di particolare rilevanza

Report METAR

   
LICF - Messina, Italy
Distanza dalla stazione: NE 30 km
Dati ricevuti: 18-01-2020 00:55
DATI Obsoleti
Parzialmente nuvoloso  
Parzialmente nuvoloso  
   Vento: NE 5.6 km/h
Vento: NE 5.6 km/h
Temperatura: 13°C
P.to Rugiada: 3°C
Umidità: 51%
Barometro: 1026 hPa
Nuvole: Parzialmente nuvoloso
Visibilità: oltre 10 km
dettagli cloud: Parzialmente nuvoloso 914.4 m
LICF 172355Z 02003KT 9999 SCT030 13/03 Q1026 RMK BKN BKN080 QUK / QUL / VIS MAR 16 KM MON INVIS NC VIS MIN 9999
LICR - Reggio Calabria, Italy
Distanza dalla stazione: SE 39 km
Dati ricevuti: 17-01-2020 23:50
DATI Obsoleti
Parzialmente nuvoloso  
Parzialmente nuvoloso  
   Vento: NNW 20.4 km/h
Vento: NNW 20.4 km/h
Temperatura: 14°C
P.to Rugiada: 4°C
Umidità: 51%
Barometro: 1026 hPa
Nuvole: Parzialmente nuvoloso
Visibilità: oltre 10 km
dettagli cloud: Parzialmente nuvoloso 1219.2 m
LICR 172250Z 34011KT 9999 SCT040 14/04 Q1026
LICC - Catania/Fontanar, Italy
Distanza dalla stazione: S 77 km
Dati ricevuti: 18-01-2020 01:50
Sereno  
Sereno  
   Vento: SW 7.4 km/h
Vento: SW 7.4 km/h
Temperatura: 7°C
Temperatura Vento: 6°C
P.to Rugiada: 4°C
Umidità: 81%
Barometro: 1026 hPa
Visibilità: oltre 10 km
dettagli cloud: Sereno
LICC 180050Z 23004KT CAVOK 07/04 Q1026
LICZ - Sigonella (nas), Italy
Distanza dalla stazione: S 89 km
Dati ricevuti: 18-01-2020 01:55
Poche nuvole  
Poche nuvole  
   Vento: Variabile calma
Vento: Variabile calma
Temperatura: 5°C
P.to Rugiada: 5°C
Umidità: 100%
Barometro: 1026 hPa
Nuvole: Poche nuvole
Visibilità: oltre 10 km
dettagli cloud: Poche nuvole 1371.6 m
LICZ 180055Z /////KT 9999 FEW045 05/05 Q1026 RMK FEW VIS MIN 9999 WIND THR28 /////KT WIND THR10 /////KT A3032 BLU
LICA - Lamezia Terme, Italy
Distanza dalla stazione: NE 122 km
Dati ricevuti: 18-01-2020 01:50
Molto nuvoloso  
Molto nuvoloso  
   Vento: West 11.1 km/h
Vento: West 11.1 km/h
Temperatura: 11°C
P.to Rugiada: 6°C
Umidità: 72%
Barometro: 1025 hPa
Nuvole: Molto nuvoloso
Visibilità: oltre 10 km
dettagli cloud: Molto nuvoloso 1371.6 m
LICA 180050Z 26006KT 9999 BKN045 11/06 Q1025
LICB - Comiso, Italy
Distanza dalla stazione: S 138 km
Dati ricevuti: 18-01-2020 01:50
Coperto  
Coperto  
   Vento: NE 9.3 km/h
Vento: NE 9.3 km/h
Temperatura: 8°C
Temperatura Vento: 7°C
P.to Rugiada: 6°C
Umidità: 87%
Barometro: 1025 hPa
Nuvole: Coperto
Visibilità: 9 km
dettagli cloud: Coperto 1188.7 m
LICB 180050Z AUTO 05005KT 9000 OVC039/// 08/06 Q1025

Script sviluppato da  Saratoga-weather.org Adattato per il modello da  Weerstation Leuven

Potete trovare le nostre info meteo anche a:

European Weather Network

Weather Underground

AWEKAS

Citizen Weather Observer Program (CWOP)

HAMweather, WeatherForYou, PWS Weather

Attrezzature usate:

Stazione meteo
Davis VP2

Programma gestore dati meteo
WVIEW

Server per i dati meteo
WDS5 Ecoblack

Davis VP2

WVIEW

WDS5 Ecoblack